Terminal Aerodrome Forecast
Issued by NWS Charleston, WV

Current Version | Previous Version | Graphics & Text | Print | Product List | Glossary On
Versions: 1 2 3 4 5 6 7 8 9 10 11 12 13 14 15 16 17 18 19 20 21 22 23 24 25 26
000
FTUS41 KRLX 210547
TAFPKB
TAF
KPKB 210547Z 2106/2206 VRB02KT 1SM BR SCT001 BKN050
      TEMPO 2106/2108 1/4SM FG VV001
     FM210800 15003KT 3SM BR FEW001 BKN250
     FM211000 16003KT 6SM BR SCT050 BKN250
     FM211300 16004KT P6SM SCT035 BKN250
     FM211600 19006KT P6SM BKN040
     FM220000 17003KT P6SM BKN070=

USA.gov is the U.S. government's official web portal to all federal, state and local government web resources and services.